createdAt,value
2018-10-18T00:02:28.062Z,19.90
2018-10-18T00:07:32.297Z,18.00
2018-10-18T00:12:36.208Z,17.77
2018-10-18T00:17:46.023Z,17.57
2018-10-18T00:22:50.394Z,22.40
2018-10-18T00:28:02.583Z,16.40
2018-10-18T00:33:06.864Z,15.20
2018-10-18T00:38:10.971Z,15.57
2018-10-18T00:43:16.563Z,15.13
2018-10-18T00:48:20.791Z,17.37
2018-10-18T00:53:24.745Z,16.20
2018-10-18T00:58:28.653Z,15.23
2018-10-18T01:03:34.296Z,17.47
2018-10-18T01:08:38.226Z,14.23
2018-10-18T01:13:43.366Z,13.27
2018-10-18T01:18:49.612Z,23.97
2018-10-18T01:23:54.070Z,15.57
2018-10-18T01:28:59.013Z,14.17
2018-10-18T01:34:02.871Z,17.83
2018-10-18T01:39:08.186Z,12.63
2018-10-18T01:44:13.509Z,15.30
2018-10-18T01:49:18.532Z,15.40
2018-10-18T01:54:22.815Z,13.23
2018-10-18T01:59:27.089Z,13.63
2018-10-18T02:04:31.945Z,14.93
2018-10-18T02:09:37.094Z,12.60
2018-10-18T02:14:41.970Z,18.83
2018-10-18T02:20:07.826Z,11.50
2018-10-18T02:25:12.244Z,14.73
2018-10-18T02:30:17.099Z,11.97
2018-10-18T02:35:22.050Z,12.33
2018-10-18T02:40:27.215Z,13.73
2018-10-18T02:45:31.935Z,10.13
2018-10-18T02:50:36.089Z,17.37
2018-10-18T02:55:41.645Z,14.37
2018-10-18T03:00:46.554Z,10.77
2018-10-18T03:05:51.713Z,11.23
2018-10-18T03:10:57.907Z,13.37
2018-10-18T03:16:01.865Z,17.07
2018-10-18T03:21:05.832Z,12.57
2018-10-18T03:26:10.802Z,13.80
2018-10-18T03:31:15.803Z,19.57
2018-10-18T03:36:19.778Z,17.50
2018-10-18T03:41:24.314Z,19.03
2018-10-18T03:46:28.854Z,11.93
2018-10-18T03:51:32.798Z,12.03
2018-10-18T03:56:37.444Z,15.17
2018-10-18T04:01:41.858Z,11.83
2018-10-18T04:06:50.798Z,15.07
2018-10-18T04:11:55.831Z,16.43
2018-10-18T04:17:00.477Z,19.93
2018-10-18T04:22:06.064Z,14.60
2018-10-18T04:27:10.437Z,15.17
2018-10-18T04:32:16.390Z,13.80
2018-10-18T04:37:20.272Z,13.97
2018-10-18T04:42:25.501Z,15.53
2018-10-18T04:47:29.839Z,13.30
2018-10-18T04:52:42.364Z,11.13
2018-10-18T04:57:47.618Z,17.70
2018-10-18T05:02:51.528Z,13.47
2018-10-18T05:07:56.028Z,12.53
2018-10-18T05:13:00.959Z,21.67
2018-10-18T05:18:05.115Z,18.87
2018-10-18T05:23:11.048Z,14.87
2018-10-18T05:28:15.565Z,14.87
2018-10-18T05:33:20.059Z,14.27
2018-10-18T05:38:24.700Z,16.00
2018-10-18T05:43:28.548Z,13.73
2018-10-18T05:48:35.635Z,14.93
2018-10-18T05:53:39.852Z,16.07
2018-10-18T05:58:43.837Z,14.17
2018-10-18T06:03:49.227Z,13.80
2018-10-18T06:08:54.590Z,11.97
2018-10-18T06:13:59.297Z,8.20
2018-10-18T06:19:03.656Z,12.40
2018-10-18T06:24:08.547Z,12.00
2018-10-18T06:29:14.892Z,12.17
2018-10-18T06:34:19.357Z,10.40
2018-10-18T06:39:24.104Z,10.33
2018-10-18T06:44:40.761Z,11.37
2018-10-18T06:49:49.624Z,14.07
2018-10-18T06:54:56.648Z,11.97
2018-10-18T07:00:02.437Z,13.13
2018-10-18T07:05:10.836Z,16.47
2018-10-18T07:10:18.701Z,12.03
2018-10-18T07:15:25.204Z,16.70
2018-10-18T07:20:33.027Z,15.33
2018-10-18T07:25:44.811Z,14.50
2018-10-18T07:30:49.467Z,16.53
2018-10-18T07:35:57.544Z,14.20
2018-10-18T07:41:05.021Z,14.03
2018-10-18T07:46:11.707Z,12.90
2018-10-18T07:51:19.246Z,16.93
2018-10-18T07:56:26.828Z,11.63
2018-10-18T08:01:34.542Z,16.00
2018-10-18T08:06:39.332Z,14.67
2018-10-18T08:11:46.798Z,16.97
2018-10-18T08:16:52.048Z,12.93
2018-10-18T08:22:02.371Z,13.23
2018-10-18T08:27:08.929Z,15.27
2018-10-18T08:32:14.079Z,8.23
2018-10-18T08:37:25.644Z,8.43
2018-10-18T08:42:30.361Z,9.03
2018-10-18T08:52:45.952Z,8.57
2018-10-18T08:57:51.536Z,9.53
2018-10-18T09:02:59.996Z,9.23
2018-10-18T09:08:20.125Z,3.83
2018-10-18T09:13:27.892Z,6.47
2018-10-18T09:18:33.725Z,6.17
2018-10-18T09:23:40.585Z,6.90
2018-10-18T09:28:48.032Z,6.07
2018-10-18T09:33:53.176Z,5.63
2018-10-18T09:38:57.935Z,4.13
2018-10-18T09:45:34.796Z,3.53
2018-10-18T09:50:44.330Z,5.70
2018-10-18T09:55:49.793Z,2.30
2018-10-18T10:01:00.914Z,3.03
2018-10-18T10:06:09.762Z,5.30
2018-10-18T10:11:16.881Z,4.53
2018-10-18T10:16:26.114Z,2.53
2018-10-18T10:21:34.771Z,4.27
2018-10-18T10:26:41.465Z,5.10
2018-10-18T10:31:47.330Z,3.53
2018-10-18T10:36:56.846Z,3.57
2018-10-18T10:42:01.906Z,3.30
2018-10-18T10:47:07.494Z,4.20
2018-10-18T10:52:11.751Z,3.67
2018-10-18T10:57:16.843Z,3.23
2018-10-18T11:02:21.281Z,4.23
2018-10-18T11:07:26.062Z,1.70
2018-10-18T11:12:31.196Z,3.83
2018-10-18T11:17:36.140Z,3.57
2018-10-18T11:22:40.745Z,3.87
2018-10-18T11:27:45.645Z,4.33
2018-10-18T11:32:49.674Z,2.83
2018-10-18T11:37:54.094Z,3.20
2018-10-18T11:42:59.546Z,5.40
2018-10-18T11:48:04.840Z,3.50
2018-10-18T11:53:09.745Z,3.83
2018-10-18T11:58:14.729Z,2.93
2018-10-18T12:03:20.115Z,4.50
2018-10-18T12:08:24.800Z,4.47
2018-10-18T12:13:29.112Z,3.00
2018-10-18T12:18:33.408Z,2.73
2018-10-18T12:23:37.848Z,5.37
2018-10-18T12:28:42.373Z,5.17
2018-10-18T12:33:47.070Z,5.27
2018-10-18T12:38:51.852Z,5.00
2018-10-18T12:43:56.636Z,4.23
2018-10-18T12:49:01.903Z,7.00
2018-10-18T12:54:08.075Z,4.17
2018-10-18T12:59:14.198Z,7.03
2018-10-18T13:04:18.243Z,9.10
2018-10-18T13:09:22.442Z,5.13
2018-10-18T13:14:27.364Z,3.70
2018-10-18T13:19:33.500Z,2.83
2018-10-18T13:24:38.319Z,4.40
2018-10-18T13:29:42.529Z,3.40
2018-10-18T13:34:47.301Z,9.17
2018-10-18T13:39:51.497Z,3.10
2018-10-18T13:44:55.568Z,2.43
2018-10-18T13:50:01.346Z,4.30
2018-10-18T13:55:06.403Z,2.90
2018-10-18T14:00:20.692Z,2.50
2018-10-18T14:05:25.805Z,2.20
2018-10-18T14:10:30.299Z,2.90
2018-10-18T14:15:34.463Z,2.43
2018-10-18T14:20:39.033Z,2.17
2018-10-18T14:25:44.175Z,4.27
2018-10-18T14:30:50.883Z,5.90
2018-10-18T14:35:55.148Z,3.80
2018-10-18T14:40:59.250Z,3.63
2018-10-18T14:46:03.258Z,5.57
2018-10-18T14:51:07.662Z,3.00
2018-10-18T14:56:12.285Z,4.33
2018-10-18T15:01:16.399Z,4.70
2018-10-18T15:06:20.493Z,3.70
2018-10-18T15:11:24.634Z,3.90
2018-10-18T15:16:28.667Z,6.23
2018-10-18T15:21:32.709Z,11.07
2018-10-18T15:26:36.982Z,10.00
2018-10-18T15:31:41.242Z,8.63
2018-10-18T15:36:45.557Z,8.60
2018-10-18T15:41:49.608Z,3.77
2018-10-18T15:46:53.709Z,6.73
2018-10-18T15:51:57.674Z,5.00
2018-10-18T15:57:01.703Z,4.90
2018-10-18T16:02:07.299Z,5.13
2018-10-18T16:07:11.518Z,4.40
2018-10-18T16:12:15.565Z,6.80
2018-10-18T16:17:19.634Z,5.67
2018-10-18T16:22:23.736Z,7.17
2018-10-18T16:27:28.742Z,12.20
2018-10-18T16:32:32.666Z,6.77
2018-10-18T16:37:36.767Z,8.07
2018-10-18T16:42:40.752Z,5.00
2018-10-18T16:47:44.936Z,7.40
2018-10-18T16:52:48.773Z,7.07
2018-10-18T16:57:52.911Z,6.13
2018-10-18T17:02:56.936Z,11.00
2018-10-18T17:08:01.212Z,8.80
2018-10-18T17:13:09.123Z,7.03
2018-10-18T17:18:13.278Z,6.33
2018-10-18T17:23:17.255Z,9.50
2018-10-18T17:28:23.593Z,9.57
2018-10-18T17:33:27.566Z,7.67
2018-10-18T17:38:31.641Z,7.87
2018-10-18T17:43:35.799Z,12.63
2018-10-18T17:48:39.854Z,11.30
2018-10-18T17:53:44.530Z,7.37
2018-10-18T17:58:48.542Z,7.93
2018-10-18T18:03:52.556Z,6.07
2018-10-18T18:08:56.578Z,9.83
2018-10-18T18:14:00.523Z,6.20
2018-10-18T18:19:05.018Z,7.73
2018-10-18T18:24:08.974Z,6.60
2018-10-18T18:29:13.077Z,5.70
2018-10-18T18:34:17.205Z,8.53
2018-10-18T18:39:24.443Z,7.73
2018-10-18T18:44:28.506Z,10.67
2018-10-18T18:49:32.618Z,7.03
2018-10-18T18:54:36.582Z,6.03
2018-10-18T18:59:40.486Z,5.63
2018-10-18T19:04:44.469Z,6.97
2018-10-18T19:09:48.606Z,10.20
2018-10-18T19:14:52.802Z,6.67
2018-10-18T19:19:56.816Z,9.93
2018-10-18T19:25:00.723Z,11.87
2018-10-18T19:30:05.027Z,13.50
2018-10-18T19:35:09.095Z,7.70
2018-10-18T19:40:13.095Z,8.53
2018-10-18T19:45:17.185Z,8.57
2018-10-18T19:50:21.368Z,8.70
2018-10-18T19:55:25.534Z,11.93
2018-10-18T20:00:30.096Z,19.57
2018-10-18T20:05:34.627Z,9.20
2018-10-18T20:10:38.896Z,9.00
2018-10-18T20:15:42.990Z,12.27
2018-10-18T20:20:47.104Z,10.57
2018-10-18T20:25:51.424Z,11.37
2018-10-18T20:30:55.271Z,4.70
2018-10-18T20:35:59.582Z,5.27
2018-10-18T20:41:03.544Z,9.17
2018-10-18T20:46:07.422Z,6.63
2018-10-18T20:51:11.479Z,7.37
2018-10-18T20:56:15.430Z,11.07
2018-10-18T21:01:19.418Z,9.50
2018-10-18T21:06:23.789Z,12.33
2018-10-18T21:11:27.667Z,8.40
2018-10-18T21:16:31.725Z,7.73
2018-10-18T21:21:35.795Z,7.00
2018-10-18T21:26:39.733Z,13.90
2018-10-18T21:31:44.778Z,5.77
2018-10-18T21:36:48.736Z,7.53
2018-10-18T21:41:52.837Z,11.83
2018-10-18T21:46:56.771Z,12.60
2018-10-18T21:52:00.916Z,13.70
2018-10-18T21:57:05.970Z,15.63
2018-10-18T22:02:10.032Z,12.93
2018-10-18T22:07:14.073Z,8.20
2018-10-18T22:12:17.973Z,9.67
2018-10-18T22:17:21.961Z,8.17
2018-10-18T22:22:26.700Z,11.90
2018-10-18T22:27:30.922Z,10.20
2018-10-18T22:32:35.061Z,10.40
2018-10-18T22:37:39.141Z,13.33
2018-10-18T22:42:43.180Z,8.17
2018-10-18T22:47:47.105Z,11.83
2018-10-18T22:52:51.001Z,9.17
2018-10-18T22:57:54.916Z,11.77
2018-10-18T23:02:59.025Z,7.27
2018-10-18T23:08:02.913Z,12.67
2018-10-18T23:13:07.018Z,8.50
2018-10-18T23:18:11.337Z,10.53
2018-10-18T23:23:15.267Z,11.90
2018-10-18T23:28:19.247Z,9.27
2018-10-18T23:33:23.231Z,12.90
2018-10-18T23:38:27.141Z,8.47
2018-10-18T23:43:31.074Z,10.63
2018-10-18T23:48:36.623Z,12.57
2018-10-18T23:53:40.715Z,11.70
2018-10-18T23:58:44.712Z,11.77
